High Level Airport
CYOJ : rendu visible

Aérodrome :











RETROUVEZ-NOUS SUR...

 
LOGIN :

S'inscrire | Disclaimer

   EN    FR    IT 

 









Légende :    VFR   VFR Marginal   IFR   IFR Intensif   IFR Très Intensif
Visi : 
Plafond : 
>= 8 km
>= 3000ft
5 à 8 km
1000 à 3000 ft
1500m à 5 km
500 à 1000 ft
800 à 1500m
200 à 500 ft
< 800m
< 200 ft
Symboles :   Orages  Brouillard  Fortes neiges  Fortes précipitations  Vent > 20 kt






- Altitude de l'aérodrome : 1110 ft
- Code IATA : YOJ


CYOJ - High Level

DERNIER METAR :
  • 100700Z AUTO VRB02KT 9SM OVC048 M22/M24 A3019 RMK SLP267

METARs EXPIRÉS :
  • 100600Z AUTO 00000KT 9SM OVC048 M22/M24 A3019 RMK SLP267
  • 100500Z 00000KT 10SM BKN050 M23/M25 A3019 RMK SC6 LAST STFD OBS/NXT 101400Z SLP268

TAF TAF CYOJ
Valide du 10 à 07h jusqu'au 10 à 19h UTC


100647Z 1007/1019 VRB03KT P6SM OVC040
TEMPO 1007/1011 5SM -SN OVC020
FM101100 VRB03KT P6SM BKN007
TEMPO 1011/1017 P6SM -SN BKN010
FM101700 13010KT P6SM SCT010 RMK FCST BASED ON AUTO OBS. NXT FCST BY 101300Z



MET'MAP, la Météo Aéronautique d'un coup d'oeil ! - Copyright ORBIFLY Décembre 2007 - Disclaimer

ORBIFLY MET'MAP TEAM :

Programmation & Développement : Alexandra Zaïnal
Sur une idée originale de : Baudouin d'Aumeries
Assistance à la programmation : Marc-Olivier Méhu
Soutien technique & logistique : Manuel Goepfert

Contact : metmap@orbifly.com




SOURCES & CREDITS :

   NOAA       Earth
Advisory